Terminal Aerodrome Forecast
Issued by NWS Grand Forks, ND

Home | Current Version | Previous Version | Graphics & Text | Print | Product List | Glossary On
Versions: 1 2 3 4 5 6 7 8 9 10 11 12 13 14 15 16 17 18 19 20 21 22
000
FTUS43 KFGF 021416 AAA
TAFGFK
TAF AMD
KGFK 021416Z 0214/0312 13012KT P6SM BKN100
     FM022200 15013KT P6SM -TSRA BKN060CB
     FM030400 34010KT P6SM BKN015=

USA.gov is the U.S. government's official web portal to all federal, state and local government web resources and services.